Latest Weather Observations for Williamtown

IDN60901

Issued at 12:12 pm EDT Sunday 7 February 2016 (issued every 10 minutes, with the page automatically refreshed every 10 minutes)

About weather observations | Map of Sydney area stations | Latest observations for Sydney area | Other Formats
Station Details ID: 061078 Name: WILLIAMTOWN RAAF Lat: -32.79 Lon: 151.84 Height: 9.0 m
Data from the previous 72 hours. | See also: Recent months at Williamtown
Date/Time
EDT
Tmp

°C
App
Tmp
°C
Dew
Point
°C
Rel
Hum
%
Delta-T

°C
Wind Press
QNH
hPa
Press
MSL
hPa
Rain
since
9 am
mm
Dir
 
Spd
km/h
Gust
km/h
Spd
kts
Gust
kts
07/11:30am 25.1 24.2 15.9 56 5.6 ESE 15 24 8 13 1017.6 1017.5 0.0
07/11:00am 24.3 23.0 15.7 58 5.2 SE 17 24 9 13 1017.9 1017.8 0.0
07/10:30am 24.8 24.3 15.9 57 5.4 ESE 13 17 7 9 1017.9 1017.8 0.0
07/10:00am 24.0 24.4 16.3 62 4.7 SSW 9 11 5 6 1017.9 1017.8 0.0
07/09:30am 22.8 24.0 16.9 69 3.6 W 6 9 3 5 1017.7 1017.6 0.0
07/09:00am 21.7 23.4 18.0 79 2.3 NW 6 7 3 4 1017.7 1017.6 0.2
07/08:30am 21.0 22.4 18.6 86 1.5 WNW 9 11 5 6 1017.7 1017.6 0.2
07/08:00am 19.7 20.2 18.4 92 0.8 NW 13 15 7 8 1017.5 1017.4 0.2
07/07:30am 18.5 19.9 17.7 95 0.5 WNW 7 9 4 5 1017.2 1017.1 0.2
07/07:00am 18.2 19.5 17.5 96 0.4 NW 7 9 4 5 1016.9 1016.8 0.2
07/06:30am 18.0 18.8 17.3 96 0.4 WNW 9 9 5 5 1016.8 1016.7 0.2
07/06:00am 18.0 19.3 17.5 97 0.3 WNW 7 9 4 5 1016.6 1016.5 0.2
07/05:30am 18.3 19.2 17.6 96 0.4 WNW 9 11 5 6 1016.5 1016.4 0.2
07/05:00am 18.3 19.7 17.8 97 0.3 NW 7 9 4 5 1016.2 1016.1 0.2
07/04:30am 18.6 20.0 17.9 96 0.4 WNW 7 9 4 5 1016.2 1016.1 0.2
07/04:00am 18.5 20.4 17.7 95 0.5 WSW 4 7 2 4 1016.3 1016.2 0.2
07/03:30am 18.8 21.2 18.0 95 0.5 WNW 2 7 1 4 1016.4 1016.3 0.2
07/03:00am 18.8 19.9 18.0 95 0.5 NW 9 11 5 6 1016.5 1016.4 0.2
07/02:30am 18.5 19.9 17.7 95 0.5 W 7 9 4 5 1016.7 1016.6 0.2
07/02:00am 19.0 21.9 18.2 95 0.5 CALM 0 0 0 0 1016.9 1016.8 0.2
07/01:30am 19.2 22.2 18.4 95 0.5 CALM 0 0 0 0 1016.8 1016.7 0.2
07/01:00am 19.3 22.2 18.3 94 0.6 CALM 0 0 0 0 1017.3 1017.2 0.2
07/12:30am 19.6 22.7 18.6 94 0.6 CALM 0 0 0 0 1017.2 1017.1 0.2
07/12:00am 19.8 22.8 18.5 92 0.8 CALM 0 0 0 0 1017.4 1017.3 0.2
 
Date/Time
EDT
Tmp

°C
App
Tmp
°C
Dew
Point
°C
Rel
Hum
%
Delta-T

°C
Wind Press
QNH
hPa
Press
MSL
hPa
Rain
since
9 am
mm
Dir
 
Spd
km/h
Gust
km/h
Spd
kts
Gust
kts
06/11:30pm 20.0 23.0 18.4 90 1.0 CALM 0 0 0 0 1017.5 1017.4 0.2
06/11:00pm 20.8 21.3 17.5 81 2.0 ESE 11 19 6 10 1017.8 1017.7 0.2
06/10:30pm 19.9 21.6 18.0 89 1.2 ENE 6 7 3 4 1017.6 1017.5 0.2
06/10:00pm 21.7 22.4 17.1 75 2.8 ESE 9 11 5 6 1017.5 1017.4 0.2
06/09:30pm 21.7 21.8 16.6 73 3.1 SE 11 15 6 8 1017.4 1017.3 0.0
06/09:00pm 21.4 20.7 16.3 72 3.1 SE 15 19 8 10 1017.2 1017.1 0.0
06/08:30pm 21.9 22.0 16.5 71 3.3 ESE 11 17 6 9 1016.9 1016.8 0.0
06/08:00pm 22.3 21.6 16.5 69 3.5 SE 15 19 8 10 1016.8 1016.7 0.0
06/07:30pm 22.6 22.6 17.1 71 3.4 ESE 13 17 7 9 1016.6 1016.5 0.0
06/07:00pm 22.8 21.6 17.1 70 3.5 ESE 19 26 10 14 1016.3 1016.2 0.0
06/06:30pm 23.9 21.9 15.6 59 5.0 SE 20 28 11 15 1015.9 1015.8 0.0
06/06:00pm 23.6 21.6 15.6 61 4.8 ESE 20 28 11 15 1015.8 1015.7 0.0
06/05:30pm 23.9 22.9 16.5 63 4.5 ESE 17 26 9 14 1015.7 1015.6 0.0
06/05:00pm 23.9 20.6 15.0 57 5.3 ESE 26 32 14 17 1015.6 1015.5 0.0
06/04:30pm 25.4 23.5 16.8 59 5.3 SE 22 32 12 17 1015.7 1015.6 0.0
06/04:00pm 24.1 21.9 16.8 63 4.5 ESE 24 32 13 17 1015.9 1015.8 0.0
06/03:30pm 24.5 21.8 16.7 61 4.8 ESE 26 35 14 19 1016.1 1016.0 0.0
06/03:00pm 24.8 22.3 16.1 58 5.3 ESE 24 39 13 21 1016.1 1016.0 0.0
06/02:30pm 25.2 22.6 16.0 56 5.6 SE 24 32 13 17 1016.3 1016.2 0.0
06/02:00pm 24.8 21.7 15.7 57 5.5 ESE 26 35 14 19 1016.5 1016.4 0.0
06/01:30pm 23.8 22.3 16.8 65 4.3 ESE 20 30 11 16 1016.8 1016.7 0.0
06/01:00pm 24.1 21.8 15.8 59 5.0 SE 22 37 12 20 1017.0 1016.9 0.0
06/12:30pm 24.8 23.3 16.7 60 5.0 SE 20 33 11 18 1017.2 1017.1 0.0
06/12:00pm 25.2 23.4 17.0 60 5.1 SE 22 32 12 17 1017.3 1017.2 0.0
06/11:30am 24.4 22.2 16.8 62 4.7 ESE 24 30 13 16 1017.3 1017.2 0.0
06/11:00am 24.0 23.5 17.9 68 3.8 SE 17 32 9 17 1017.3 1017.2 0.0
06/10:30am 22.0 23.2 18.3 79 2.3 S 9 15 5 8 1017.5 1017.4 0.0
06/10:00am 20.8 20.8 18.2 85 1.6 S 15 24 8 13 1017.6 1017.5 0.0
06/09:30am 20.9 21.7 18.2 84 1.7 S 11 13 6 7 1017.5 1017.4 0.0
06/09:23am 20.8 21.4 18.6 87 1.4 S 13 19 7 10 1017.4 1017.3 0.0
06/09:00am 19.9 19.5 18.9 94 0.6 SE 19 26 10 14 1017.5 1017.4 6.8
06/08:30am 20.0 20.4 18.2 89 1.1 ESE 13 19 7 10 1017.5 1017.4 5.8
06/08:26am 20.1 20.5 18.2 89 1.2 ESE 13 17 7 9 1017.4 1017.3 5.6
06/08:00am 20.9 19.2 17.3 80 2.2 SE 22 30 12 16 1017.0 1016.9 5.4
06/07:30am 20.7 19.9 17.1 80 2.2 E 17 20 9 11 1016.5 1016.4 5.4
06/07:00am 20.9 18.6 16.6 76 2.6 ESE 24 33 13 18 1016.2 1016.1 5.4
06/06:30am 21.3 19.8 17.6 79 2.3 ESE 22 32 12 17 1016.0 1015.9 5.4
06/06:00am 21.0 20.3 16.5 75 2.7 SE 15 20 8 11 1015.6 1015.5 5.4
06/05:30am 21.0 21.8 18.1 83 1.8 ESE 11 13 6 7 1015.5 1015.4 5.4
06/05:00am 21.0 22.1 18.1 83 1.8 E 9 11 5 6 1015.5 1015.4 5.4
06/04:30am 21.1 20.7 17.2 78 2.4 SE 15 19 8 10 1015.6 1015.5 5.4
06/04:00am 20.6 21.9 18.5 88 1.3 S 9 15 5 8 1015.6 1015.5 5.4
06/03:30am 20.2 20.1 18.8 92 0.9 S 17 26 9 14 1015.6 1015.5 5.2
06/03:00am 20.6 19.1 18.5 88 1.3 S 24 32 13 17 1015.6 1015.5 4.0
06/02:30am 20.1 20.0 18.7 92 0.9 SSW 17 22 9 12 1015.9 1015.8 4.0
06/02:00am 20.4 19.7 18.3 88 1.3 S 19 28 10 15 1016.1 1016.0 4.0
06/01:30am 20.1 19.4 18.3 89 1.1 S 19 26 10 14 1016.2 1016.1 4.0
06/01:00am 19.6 19.0 18.8 95 0.5 SSW 20 30 11 16 1016.5 1016.4 4.0
06/12:30am 19.6 19.8 18.5 93 0.7 S 15 19 8 10 1016.9 1016.8 3.2
06/12:00am 19.6 18.4 18.3 92 0.8 S 22 32 12 17 1017.3 1017.2 3.2
 
Date/Time
EDT
Tmp

°C
App
Tmp
°C
Dew
Point
°C
Rel
Hum
%
Delta-T

°C
Wind Press
QNH
hPa
Press
MSL
hPa
Rain
since
9 am
mm
Dir
 
Spd
km/h
Gust
km/h
Spd
kts
Gust
kts
05/11:30pm 19.8 20.0 18.5 92 0.8 S 15 19 8 10 1017.6 1017.5 3.0
05/11:25pm 19.8 19.5 18.3 91 0.9 S 17 26 9 14 1017.6 1017.5 3.0
05/11:09pm 19.6 18.1 18.6 94 0.6 S 24 35 13 19 1017.7 1017.6 2.8
05/11:00pm 19.5 16.7 18.2 92 0.8 S 30 37 16 20 1017.6 1017.5 2.2
05/10:30pm 19.7 19.2 18.6 93 0.7 S 19 28 10 15 1017.6 1017.5 2.2
05/10:16pm 19.4 18.3 18.6 95 0.5 S 22 28 12 15 1017.8 1017.7 2.2
05/10:00pm 19.5 18.9 18.9 96 0.4 SSE 20 32 11 17 1018.0 1017.9 1.8
05/09:30pm 19.5 16.0 17.9 90 1.0 SSE 33 44 18 24 1017.8 1017.7 0.2
05/09:26pm 19.9 16.2 17.4 85 1.5 SSE 33 44 18 24 1017.7 1017.6 0.0
05/09:00pm 20.6 17.6 17.7 83 1.8 S 30 41 16 22 1017.3 1017.2 0.0
05/08:30pm 20.4 18.1 17.6 84 1.7 S 26 35 14 19 1017.0 1016.9 0.0
05/08:13pm 20.1 18.3 17.8 86 1.4 S 24 32 13 17 1016.9 1016.8 0.0
05/08:03pm 19.9 17.0 18.0 89 1.2 S 30 48 16 26 1016.9 1016.8 0.0
05/08:02pm 19.9 16.6 18.0 89 1.2 S 32 48 17 26 1016.9 1016.8 0.0
05/08:00pm 20.0 16.8 18.2 89 1.1 S 32 48 17 26 1016.9 1016.8 0.0
05/07:30pm 20.9 16.8 17.3 80 2.2 SSE 35 48 19 26 1016.7 1016.6 0.0
05/07:00pm 21.6 18.0 17.2 76 2.7 SSE 32 41 17 22 1016.2 1016.1 0.0
05/06:30pm 22.6 17.7 15.2 63 4.4 S 35 44 19 24 1015.8 1015.7 0.0
05/06:00pm 22.9 19.3 15.2 62 4.6 S 28 41 15 22 1015.7 1015.6 0.0
05/05:30pm 22.9 20.0 16.1 65 4.1 SSW 26 37 14 20 1015.7 1015.6 0.0
05/05:00pm 22.2 17.9 15.3 65 4.1 S 32 44 17 24 1015.9 1015.8 0.0
05/04:30pm 23.4 17.6 15.0 59 5.0 SSE 39 50 21 27 1015.9 1015.8 0.0
05/04:15pm 24.4 19.4 16.0 59 5.1 SSE 37 56 20 30 1016.0 1015.9 0.0
05/04:00pm 24.1 19.1 16.0 60 4.9 S 37 48 20 26 1016.1 1016.0 0.0
05/03:30pm 23.9 19.3 16.0 61 4.8 SSE 35 46 19 25 1016.1 1016.0 0.0
05/03:00pm 23.3 18.9 15.7 62 4.6 S 33 48 18 26 1016.2 1016.1 0.0
05/02:30pm 23.7 18.8 15.4 59 5.0 SSE 35 48 19 26 1016.3 1016.2 0.0
05/02:00pm 23.9 18.9 15.0 57 5.3 S 35 48 19 26 1016.3 1016.2 0.0
05/01:30pm 24.0 18.8 15.5 59 5.1 S 37 48 20 26 1016.2 1016.1 0.0
05/01:00pm 23.5 17.7 14.9 58 5.1 S 39 50 21 27 1016.3 1016.2 0.0
05/12:30pm 23.6 18.3 16.2 63 4.5 S 39 54 21 29 1016.6 1016.5 0.0
05/12:08pm 23.7 17.7 14.4 56 5.5 S 39 57 21 31 1016.5 1016.4 0.0
05/12:00pm 23.8 18.0 14.9 57 5.3 S 39 50 21 27 1016.4 1016.3 0.0
05/11:30am 23.6 17.8 15.0 58 5.1 S 39 56 21 30 1016.4 1016.3 0.0
05/11:09am 23.4 17.9 15.8 62 4.6 SSE 39 57 21 31 1016.4 1016.3 0.0
05/11:00am 23.4 18.0 16.1 63 4.4 S 39 54 21 29 1016.3 1016.2 0.0
05/10:41am 22.5 18.1 17.5 73 3.1 S 37 56 20 30 1016.1 1016.0 0.0
05/10:30am 23.3 18.3 16.0 63 4.4 S 37 50 20 27 1015.9 1015.8 0.0
05/10:00am 22.7 17.9 16.6 68 3.7 S 37 52 20 28 1015.8 1015.7 0.0
05/09:39am 22.8 19.1 16.9 69 3.6 S 32 50 17 27 1015.6 1015.5 0.0
05/09:30am 22.4 18.1 16.8 70 3.4 S 35 52 19 28 1015.5 1015.4 0.0
05/09:15am 21.9 18.5 17.7 77 2.6 SSW 32 50 17 27 1015.4 1015.3 0.0
05/09:00am 21.7 16.7 17.0 74 2.9 S 39 54 21 29 1015.4 1015.3 8.2
05/08:38am 21.2 17.2 17.5 79 2.3 S 35 54 19 29 1015.1 1015.0 8.2
05/08:30am 21.1 17.3 17.3 79 2.3 S 33 48 18 26 1015.2 1015.1 8.2
05/08:00am 21.9 17.3 16.1 69 3.5 S 35 48 19 26 1014.8 1014.7 8.2
05/07:50am 22.0 16.8 15.5 66 3.9 S 37 56 20 30 1014.7 1014.6 8.2
05/07:30am 21.9 17.0 15.2 65 4.0 S 35 52 19 28 1014.5 1014.4 8.2
05/07:21am 21.8 17.0 14.7 64 4.2 S 33 52 18 28 1014.5 1014.4 8.2
05/07:00am 21.8 16.9 15.2 66 3.9 S 35 48 19 26 1014.3 1014.2 8.2
05/06:30am 21.5 17.2 16.0 71 3.3 S 33 46 18 25 1013.8 1013.7 8.2
05/06:00am 20.6 15.9 16.8 79 2.3 S 37 56 20 30 1013.5 1013.4 8.2
05/05:54am 21.2 17.4 16.6 75 2.8 S 32 52 17 28 1013.4 1013.3 8.2
05/05:30am 21.9 17.4 15.4 66 3.9 S 33 44 18 24 1013.2 1013.1 8.2
05/05:18am 21.6 17.8 15.8 69 3.5 S 30 48 16 26 1013.0 1012.9 8.2
05/05:00am 21.7 17.7 15.3 67 3.8 SSW 30 41 16 22 1012.9 1012.8 8.2
05/04:37am 21.3 17.6 16.0 72 3.2 SSW 30 48 16 26 1012.9 1012.8 8.2
05/04:30am 21.4 17.3 15.9 71 3.3 S 32 43 17 23 1012.9 1012.8 8.2
05/04:00am 21.8 17.9 14.5 63 4.3 S 28 39 15 21 1012.9 1012.8 8.2
05/03:30am 21.7 17.3 14.2 62 4.4 S 30 44 16 24 1013.0 1012.9 8.2
05/03:02am 21.8 16.9 14.3 62 4.4 S 33 52 18 28 1013.2 1013.1 8.2
05/03:00am 21.9 16.7 14.4 62 4.4 S 35 52 19 28 1013.2 1013.1 8.2
05/02:33am 21.9 17.7 16.3 70 3.4 S 33 52 18 28 1013.2 1013.1 8.2
05/02:30am 21.8 17.9 16.5 72 3.2 S 32 46 17 25 1013.2 1013.1 8.2
05/02:00am 21.5 17.9 17.3 77 2.6 SSW 32 46 17 25 1013.5 1013.4 8.2
05/01:30am 21.8 17.3 16.5 72 3.2 S 35 50 19 27 1013.6 1013.5 8.2
05/01:08am 21.7 18.0 17.0 74 2.9 S 32 50 17 27 1013.7 1013.6 8.2
05/01:00am 21.5 18.3 17.3 77 2.6 SSW 30 39 16 21 1013.7 1013.6 8.2
05/12:30am 21.1 17.5 17.7 81 2.1 S 33 48 18 26 1013.9 1013.8 8.2
05/12:00am 20.4 16.0 17.6 84 1.7 S 37 52 20 28 1014.1 1014.0 8.2
 
Date/Time
EDT
Tmp

°C
App
Tmp
°C
Dew
Point
°C
Rel
Hum
%
Delta-T

°C
Wind Press
QNH
hPa
Press
MSL
hPa
Rain
since
9 am
mm
Dir
 
Spd
km/h
Gust
km/h
Spd
kts
Gust
kts
04/11:38pm 21.1 16.1 17.0 77 2.5 S 39 57 21 31 1014.2 1014.1 8.0
04/11:36pm 21.1 15.7 17.0 77 2.5 S 41 57 22 31 1014.2 1014.1 8.0
04/11:35pm 21.1 16.2 17.2 78 2.4 S 39 57 21 31 1014.2 1014.1 8.0
04/11:30pm 20.8 15.9 17.4 81 2.1 S 39 56 21 30 1014.2 1014.1 8.0
04/11:22pm 20.6 16.6 17.7 83 1.8 S 35 52 19 28 1014.3 1014.2 8.0
04/11:09pm 21.0 16.8 17.1 78 2.4 S 35 54 19 29 1014.2 1014.1 7.8
04/11:08pm 20.9 16.3 17.1 79 2.3 S 37 54 20 29 1014.2 1014.1 7.8
04/11:00pm 20.6 15.3 17.3 81 2.0 S 41 54 22 29 1014.4 1014.3 7.8
04/10:49pm 20.6 15.4 17.5 82 1.9 S 41 56 22 30 1014.3 1014.2 7.8
04/10:33pm 22.1 16.7 16.1 69 3.6 S 39 57 21 31 1014.1 1014.0 7.8
04/10:30pm 22.1 16.3 16.1 69 3.6 S 41 57 22 31 1014.1 1014.0 7.8
04/10:00pm 22.1 16.2 15.8 67 3.8 S 41 63 22 34 1013.8 1013.7 7.8
04/09:30pm 22.1 17.1 16.1 69 3.6 S 37 54 20 29 1013.7 1013.6 7.8
04/09:00pm 22.1 15.7 15.4 65 4.0 S 43 57 23 31 1013.3 1013.2 7.8
04/08:30pm 22.2 16.6 16.4 69 3.5 S 41 57 22 31 1013.0 1012.9 7.8
04/08:00pm 22.0 16.5 16.8 72 3.2 S 41 59 22 32 1012.6 1012.5 7.8
04/07:30pm 21.4 16.3 17.8 80 2.2 S 41 65 22 35 1012.1 1012.0 7.8
04/07:23pm 21.4 16.9 18.2 82 2.0 SSW 39 65 21 35 1012.0 1011.9 7.8
04/07:00pm 21.1 17.7 18.9 87 1.4 SSW 35 50 19 27 1011.8 1011.7 7.8
04/06:38pm 20.5 17.1 18.9 90 1.0 S 35 65 19 35 1011.7 1011.6 7.4
04/06:30pm 20.5 17.2 19.2 92 0.8 S 35 52 19 28 1011.6 1011.5 7.2
04/06:19pm 20.4 16.4 19.3 93 0.7 S 39 57 21 31 1011.6 1011.5 7.2
04/06:07pm 21.1 17.0 19.2 89 1.2 S 39 57 21 31 1011.4 1011.3 6.8
04/06:00pm 21.1 16.2 19.0 88 1.3 S 43 57 23 31 1011.4 1011.3 6.8
04/05:40pm 21.5 18.8 19.6 89 1.2 SSW 33 52 18 28 1011.1 1011.0 6.6
04/05:30pm 21.3 18.6 19.6 90 1.1 SSW 33 50 18 27 1011.1 1011.0 6.6
04/05:00pm 21.3 17.8 19.6 90 1.1 SSW 37 54 20 29 1011.0 1010.9 6.6
04/04:30pm 21.4 17.6 19.7 90 1.1 S 39 57 21 31 1011.1 1011.0 6.4
04/04:00pm 22.0 18.9 19.7 87 1.5 SSW 35 52 19 28 1010.9 1010.8 6.4
04/03:31pm 22.2 17.5 19.4 84 1.8 S 43 63 23 34 1011.0 1010.9 6.2
04/03:30pm 22.6 18.1 19.0 80 2.3 SSW 41 57 22 31 1010.9 1010.8 6.2
04/03:08pm 22.7 21.1 20.7 88 1.3 SSW 30 48 16 26 1010.9 1010.8 6.2
04/03:00pm 22.3 20.1 20.8 91 1.0 SSW 33 48 18 26 1011.0 1010.9 6.2
04/02:43pm 21.6 18.4 20.2 92 0.9 S 37 57 20 31 1011.1 1011.0 6.0
04/02:36pm 22.9 20.4 19.8 83 2.0 SSW 32 50 17 27 1011.0 1010.9 5.8
04/02:30pm 22.8 20.3 20.2 85 1.7 SSW 33 44 18 24 1011.0 1010.9 5.8
04/02:00pm 23.0 19.8 19.4 80 2.3 SSW 35 54 19 29 1011.0 1010.9 5.8
04/01:56pm 22.7 19.9 19.4 81 2.1 SSW 33 54 18 29 1010.9 1010.8 5.8
04/01:38pm 22.2 19.8 20.0 87 1.4 S 32 44 17 24 1011.1 1011.0 5.4
04/01:30pm 23.0 21.9 20.2 84 1.8 SSW 26 37 14 20 1011.0 1010.9 5.4
04/01:00pm 24.5 21.3 19.5 73 3.2 SSW 35 48 19 26 1011.0 1010.9 5.4
04/12:30pm 24.9 21.4 19.6 72 3.4 SSW 37 50 20 27 1011.2 1011.1 5.4

Latest Capital City Observations: Canberra | Sydney | Melbourne | Brisbane | Adelaide | Perth | Hobart | Darwin

Other Formats:

Comma delimited format used in spreadsheet applications
http://www.bom.gov.au/fwo/IDN60901/IDN60901.94776.axf

JavaScript Object Notation format (JSON) in row-major order
http://www.bom.gov.au/fwo/IDN60901/IDN60901.94776.json